Osceola Municipal, IA

4:15 AM CST on November 20, 2017 (GMT -0600)
Osceola Municipal

Weather History for KI75 - April, 2013

Change the Weather History Date:

Wednesday, April 17, 2013

  Actual Average (KCNC) Record (KCNC)
Temperature  
Mean Temperature 42 °F -  
Max Temperature 46 °F 66 °F 86 °F (1964)
Min Temperature 39 °F 40 °F 22 °F (1951)
Degree Days  
Heating Degree Days 22    
Moisture  
Dew Point 40 °F    
Average Humidity 90    
Maximum Humidity 97    
Minimum Humidity 68    
Precipitation  
Precipitation 2.42 in - - ()
Sea Level Pressure  
Sea Level Pressure 29.91 in    
Wind  
Wind Speed 11 mph (NE)    
Max Wind Speed 29 mph    
Max Gust Speed 39 mph    
Visibility 6 miles    
Events Rain    
Averages and records for this station are not official NWS values.
T = Trace of Precipitation, MM = Missing Value Source: NWS Daily Summary

Daily Weather History Graph

Daily Weather History Graph

Search for Another Location

Airport or City:

Trip Planner

Search our weather history database for the weather conditions in past years. The results will help you decide how hot, cold, wet, or windy it might be!

Date:

Astronomy

Apr. 17, 2013 Rise Set
Actual Time 6:32 AM CDT 7:57 PM CDT
Civil Twilight 6:03 AM CDT 8:25 PM CDT
Nautical Twilight 5:28 AM CDT 9:00 PM CDT
Astronomical Twilight 4:52 AM CDT 9:37 PM CDT
Moon 11:45 AM CDT (4/17) 1:36 AM CDT (4/17)
Length of Visible Light 14h 22m
Length of Day
13h 24m
Waxing Crescent, 42% of the Moon is Illuminated
Apr 17
Waxing Crescent
Apr 18
First Quarter
Apr 25
Full
May 2
Last Quarter
May 9
New

Hourly Weather History & Observations

Time (CDT) Temp. Windchill Dew Point Humidity Pressure Visibility Wind Dir Wind Speed Gust Speed Precip Events Conditions
12:15 AM 44.1 °F 39.5 °F 34.7 °F 70% 30.17 in 10.0 mi ENE 8.1 mph - N/A   Overcast
12:35 AM 44.1 °F 40.1 °F 34.9 °F 70% 30.16 in 10.0 mi ENE 6.9 mph - N/A   Overcast
12:55 AM 44.2 °F 38.8 °F 34.2 °F 68% 30.16 in 10.0 mi ENE 10.4 mph - N/A   Overcast
1:15 AM 44.1 °F 40.1 °F 34.5 °F 69% 30.17 in 10.0 mi ENE 6.9 mph - N/A   Overcast
1:35 AM 43.7 °F 38.6 °F 35.4 °F 73% 30.16 in 10.0 mi NE 9.2 mph - N/A   Overcast
1:55 AM 43.7 °F 37.3 °F 35.6 °F 73% 30.14 in 10.0 mi NE 12.7 mph - N/A   Overcast
2:15 AM 43.7 °F 38.1 °F 35.6 °F 73% 30.14 in 10.0 mi NE 10.4 mph - N/A   Overcast
2:35 AM 43.9 °F 38.3 °F 35.6 °F 73% 30.13 in 10.0 mi NE 10.4 mph - N/A   Overcast
2:55 AM 43.5 °F 37.9 °F 36.5 °F 76% 30.12 in 10.0 mi ENE 10.4 mph - N/A Rain Light Rain
3:15 AM 43.3 °F 38.1 °F 36.7 °F 77% 30.10 in 10.0 mi NE 9.2 mph - N/A   Light Drizzle
3:35 AM 43.3 °F 38.1 °F 37.0 °F 78% 30.09 in 10.0 mi ENE 9.2 mph - N/A Rain Light Rain
3:55 AM 43.3 °F 38.1 °F 36.9 °F 78% 30.09 in - East 9.2 mph - N/A   Unknown
4:15 AM 42.8 °F 37.5 °F 37.8 °F 82% 30.08 in 10.0 mi ENE 9.2 mph - N/A Rain Light Rain
4:35 AM 42.3 °F 36.8 °F 38.3 °F 86% 30.08 in 10.0 mi NNE 9.2 mph - N/A Rain Light Rain
4:55 AM 41.9 °F 33.4 °F 38.7 °F 88% 30.15 in - WNW 18.4 mph - N/A   Unknown
5:15 AM - - - N/A% 30.05 in - East 18.4 mph - 0.04 in   Unknown
5:35 AM 41.9 °F 34.0 °F 39.2 °F 90% 30.03 in 7.0 mi East 16.1 mph - 0.11 in Rain Rain
5:55 AM 42.3 °F 34.1 °F 39.2 °F 89% 30.00 in 4.0 mi East 17.3 mph 27.6 mph 0.18 in Rain Rain
6:15 AM 42.1 °F 33.9 °F 39.4 °F 90% 30.01 in 1.2 mi ESE 17.3 mph 25.3 mph 0.33 in   Unknown
6:35 AM 42.4 °F 36.5 °F 39.4 °F 89% 30.01 in 5.0 mi East 10.4 mph 20.7 mph 0.01 in Rain Light Rain
6:55 AM 43.2 °F 35.9 °F 39.4 °F 86% 29.98 in 10.0 mi ENE 15.0 mph 23.0 mph 0.01 in   Overcast
7:15 AM 43.2 °F 39.0 °F 39.2 °F 86% 30.01 in 10.0 mi East 6.9 mph 18.4 mph N/A   Overcast
7:35 AM 42.4 °F 35.7 °F 39.6 °F 90% 30.02 in 5.0 mi East 12.7 mph 17.3 mph 0.16 in Rain Light Rain
7:55 AM 42.4 °F 33.1 °F 39.4 °F 89% 29.94 in 5.0 mi East 23.0 mph 35.7 mph 0.27 in Rain Light Rain
8:35 AM 41.9 °F 34.3 °F 38.7 °F 88% 30.02 in 4.0 mi East 15.0 mph 18.4 mph 0.13 in Rain Rain
9:15 AM 40.5 °F 33.6 °F 38.7 °F 93% 30.00 in 2.5 mi ENE 11.5 mph - 0.12 in   Unknown
9:55 AM 40.5 °F 34.6 °F 38.7 °F 93% 30.03 in 4.0 mi NE 9.2 mph - 0.07 in Rain Rain
10:15 AM 40.3 °F 34.4 °F 38.7 °F 94% 30.04 in 3.0 mi ENE 9.2 mph - 0.04 in Rain Rain
10:35 AM 40.1 °F 32.7 °F 38.7 °F 95% 30.00 in 3.0 mi ENE 12.7 mph - 0.02 in Rain Light Rain
10:55 AM 39.9 °F 32.1 °F 38.5 °F 95% 29.99 in 3.0 mi ENE 13.8 mph 17.3 mph 0.04 in Rain Light Rain
11:15 AM 39.4 °F 31.1 °F 38.1 °F 95% 29.97 in 4.0 mi East 15.0 mph 20.7 mph 0.01 in Rain Light Rain
11:35 AM 39.2 °F 32.5 °F 37.8 °F 95% 29.95 in 4.0 mi East 10.4 mph 23.0 mph N/A Rain Rain
11:55 AM 39.4 °F 30.1 °F 38.1 °F 95% 29.89 in 3.0 mi East 18.4 mph 25.3 mph 0.04 in Rain Rain
12:15 PM 39.6 °F 31.0 °F 38.3 °F 95% 29.89 in 5.0 mi ESE 16.1 mph 25.3 mph 0.02 in Rain Rain
12:35 PM 40.1 °F 32.4 °F 38.8 °F 95% 29.89 in 4.0 mi ESE 13.8 mph - 0.07 in Rain Rain
12:55 PM 40.5 °F 32.1 °F 39.2 °F 95% 29.86 in 7.0 mi ESE 16.1 mph - 0.09 in Rain Light Rain
1:15 PM 41.0 °F 33.5 °F 39.7 °F 95% 29.81 in 5.0 mi East 13.8 mph - 0.01 in Rain Light Rain
1:35 PM 41.9 °F 36.3 °F 40.6 °F 95% 29.82 in 7.0 mi East 9.2 mph - 0.01 in Rain Light Rain
1:55 PM 42.3 °F 35.9 °F 41.0 °F 95% 29.90 in 7.0 mi West 11.5 mph - 0.02 in Rain Rain
2:15 PM 42.3 °F 37.9 °F 41.0 °F 95% 29.86 in 0.5 mi North 6.9 mph - 0.17 in Rain Heavy Rain
2:35 PM 42.3 °F 37.9 °F 41.0 °F 95% 29.86 in 3.0 mi North 6.9 mph - 0.26 in Rain Rain
2:55 PM 41.9 °F 36.3 °F 40.6 °F 95% 29.87 in 1.8 mi NNE 9.2 mph - 0.36 in Rain Heavy Rain
3:35 PM 42.1 °F 37.7 °F 40.8 °F 95% 29.80 in 5.0 mi NE 6.9 mph - 0.06 in   Overcast
3:55 PM 42.1 °F 37.1 °F 41.0 °F 96% 29.79 in 7.0 mi NE 8.1 mph - 0.06 in   Overcast
4:15 PM 42.6 °F 36.8 °F 41.4 °F 95% 29.74 in 2.5 mi ENE 10.4 mph - 0.04 in Rain Rain
4:35 PM 43.0 °F 41.3 °F 41.9 °F 96% 29.76 in 5.0 mi ENE 3.5 mph - 0.05 in   Overcast
4:55 PM 43.0 °F 38.8 °F 41.9 °F 96% 29.75 in 4.0 mi North 6.9 mph - 0.09 in Rain Heavy Rain
5:15 PM 43.0 °F 40.3 °F 41.9 °F 96% 29.75 in 3.0 mi NNE 4.6 mph - 0.06 in Rain Light Rain
5:35 PM 43.3 °F 39.9 °F 42.3 °F 96% 29.73 in 5.0 mi ENE 5.8 mph - 0.07 in   Drizzle
5:55 PM 43.3 °F 39.2 °F 42.3 °F 96% 29.76 in 1.8 mi NE 6.9 mph 16.1 mph 0.17 in Rain Heavy Rain
6:15 PM 43.9 °F 40.5 °F 42.8 °F 96% 29.74 in 4.0 mi NE 5.8 mph - 0.05 in Rain Light Rain
6:35 PM 44.6 °F 39.2 °F 43.7 °F 97% 29.74 in 5.0 mi NW 10.4 mph - 0.07 in Rain Light Rain
6:55 PM 43.7 °F 33.7 °F 42.6 °F 96% 29.85 in 4.0 mi West 28.8 mph 39.1 mph 0.12 in Rain Rain
7:15 PM 41.0 °F 31.1 °F 40.1 °F 97% 29.76 in 5.0 mi NNW 23.0 mph 38.0 mph 0.04 in Rain Light Rain
7:35 PM 41.2 °F 34.1 °F 40.1 °F 96% 29.79 in 10.0 mi NNW 12.7 mph - 0.04 in Rain Light Rain
7:55 PM 41.4 °F 36.8 °F 40.3 °F 96% 29.81 in 7.0 mi NNE 6.9 mph - 0.11 in Rain Rain
8:15 PM 41.4 °F 35.2 °F 40.3 °F 96% 29.76 in 10.0 mi North 10.4 mph - 0.02 in Rain Light Rain
8:35 PM 41.5 °F 36.4 °F 40.5 °F 96% 29.77 in 10.0 mi NNE 8.1 mph - 0.03 in Rain Rain
8:55 PM 41.9 °F 35.0 °F 41.0 °F 97% 29.75 in 7.0 mi NNE 12.7 mph - 0.08 in Rain Rain
9:15 PM 42.4 °F 36.1 °F 41.4 °F 96% 29.72 in 7.0 mi NE 11.5 mph - 0.04 in Rain Rain
9:35 PM 42.8 °F 34.8 °F 41.7 °F 96% 29.64 in 7.0 mi NE 17.3 mph 20.7 mph 0.07 in Rain Light Rain
9:55 PM 44.2 °F 38.8 °F 43.2 °F 96% 29.67 in 10.0 mi East 10.4 mph 17.3 mph 0.07 in Rain Light Rain
10:15 PM 45.5 °F 40.3 °F 44.2 °F 95% 29.67 in 7.0 mi East 10.4 mph - 0.02 in Rain Light Rain
10:35 PM 45.5 °F 39.9 °F 44.6 °F 97% 29.66 in 7.0 mi ESE 11.5 mph - 0.06 in Rain Light Rain
10:55 PM 46.9 °F - 45.9 °F 96% 29.71 in 10.0 mi West 15.0 mph 18.4 mph 0.07 in Rain Light Rain
11:15 PM 46.4 °F 42.9 °F 45.1 °F 95% 29.69 in 7.0 mi WNW 6.9 mph - 0.06 in Rain Light Rain
11:35 PM 46.9 °F - 45.5 °F 95% 29.66 in 7.0 mi NNW 9.2 mph - 0.07 in Rain Light Rain
11:55 PM 44.8 °F 38.7 °F 43.3 °F 95% 29.69 in 10.0 mi WNW 12.7 mph 21.9 mph 0.07 in Rain Light Rain